sensor_id;sensor_type;location;lat;lon;timestamp;P1;durP1;ratioP1;P2;durP2;ratioP2
53925;SDS011;39836;52.754;6.866;2024-03-02T00:01:23;7.18;;;4.50;;
53925;SDS011;39836;52.754;6.866;2024-03-02T00:03:49;6.50;;;4.13;;
53925;SDS011;39836;52.754;6.866;2024-03-02T00:06:14;6.50;;;4.35;;
53925;SDS011;39836;52.754;6.866;2024-03-02T00:08:44;5.32;;;4.22;;
53925;SDS011;39836;52.754;6.866;2024-03-02T00:11:10;6.82;;;4.00;;
53925;SDS011;39836;52.754;6.866;2024-03-02T00:13:39;7.30;;;4.53;;
53925;SDS011;39836;52.754;6.866;2024-03-02T00:16:04;5.88;;;4.63;;
53925;SDS011;39836;52.754;6.866;2024-03-02T00:18:31;8.50;;;5.03;;
53925;SDS011;39836;52.754;6.866;2024-03-02T00:21:00;8.20;;;5.00;;
53925;SDS011;39836;52.754;6.866;2024-03-02T00:23:29;6.18;;;4.53;;
53925;SDS011;39836;52.754;6.866;2024-03-02T00:25:58;6.45;;;4.55;;
53925;SDS011;39836;52.754;6.866;2024-03-02T00:28:32;6.70;;;4.10;;
53925;SDS011;39836;52.754;6.866;2024-03-02T00:31:01;6.07;;;4.65;;
53925;SDS011;39836;52.754;6.866;2024-03-02T00:33:35;8.65;;;4.78;;
53925;SDS011;39836;52.754;6.866;2024-03-02T00:36:05;6.68;;;4.60;;
53925;SDS011;39836;52.754;6.866;2024-03-02T00:38:32;6.43;;;5.10;;
53925;SDS011;39836;52.754;6.866;2024-03-02T00:40:59;8.90;;;5.10;;
53925;SDS011;39836;52.754;6.866;2024-03-02T00:46:29;7.15;;;4.38;;
53925;SDS011;39836;52.754;6.866;2024-03-02T00:48:59;6.88;;;5.13;;
53925;SDS011;39836;52.754;6.866;2024-03-02T00:51:27;5.43;;;4.15;;
53925;SDS011;39836;52.754;6.866;2024-03-02T00:54:00;7.47;;;4.70;;
53925;SDS011;39836;52.754;6.866;2024-03-02T00:56:29;6.82;;;4.97;;
53925;SDS011;39836;52.754;6.866;2024-03-02T00:58:55;6.38;;;4.43;;
53925;SDS011;39836;52.754;6.866;2024-03-02T01:01:21;7.82;;;5.10;;
53925;SDS011;39836;52.754;6.866;2024-03-02T01:03:47;5.95;;;4.50;;
53925;SDS011;39836;52.754;6.866;2024-03-02T01:06:14;6.95;;;4.78;;
53925;SDS011;39836;52.754;6.866;2024-03-02T01:08:40;6.15;;;4.65;;
53925;SDS011;39836;52.754;6.866;2024-03-02T01:11:06;6.95;;;5.20;;
53925;SDS011;39836;52.754;6.866;2024-03-02T01:13:32;6.32;;;4.35;;
53925;SDS011;39836;52.754;6.866;2024-03-02T01:15:58;6.45;;;4.82;;
53925;SDS011;39836;52.754;6.866;2024-03-02T01:18:24;6.63;;;4.95;;
53925;SDS011;39836;52.754;6.866;2024-03-02T01:20:51;7.28;;;5.07;;
53925;SDS011;39836;52.754;6.866;2024-03-02T01:23:20;6.68;;;5.10;;
53925;SDS011;39836;52.754;6.866;2024-03-02T01:25:46;5.70;;;4.47;;
53925;SDS011;39836;52.754;6.866;2024-03-02T01:28:13;6.38;;;5.18;;
53925;SDS011;39836;52.754;6.866;2024-03-02T01:30:39;6.45;;;4.85;;
53925;SDS011;39836;52.754;6.866;2024-03-02T01:33:05;6.18;;;4.30;;
53925;SDS011;39836;52.754;6.866;2024-03-02T01:35:32;8.48;;;4.82;;
53925;SDS011;39836;52.754;6.866;2024-03-02T01:37:58;7.15;;;4.72;;
53925;SDS011;39836;52.754;6.866;2024-03-02T01:40:23;6.95;;;4.50;;
53925;SDS011;39836;52.754;6.866;2024-03-02T01:42:51;5.28;;;4.13;;
53925;SDS011;39836;52.754;6.866;2024-03-02T01:45:23;7.45;;;4.50;;
53925;SDS011;39836;52.754;6.866;2024-03-02T01:47:48;7.18;;;4.47;;
53925;SDS011;39836;52.754;6.866;2024-03-02T01:50:14;6.05;;;4.43;;
53925;SDS011;39836;52.754;6.866;2024-03-02T01:52:40;6.53;;;4.53;;
53925;SDS011;39836;52.754;6.866;2024-03-02T01:55:06;6.07;;;4.15;;
53925;SDS011;39836;52.754;6.866;2024-03-02T01:57:33;6.78;;;4.50;;
53925;SDS011;39836;52.754;6.866;2024-03-02T01:59:59;6.72;;;4.13;;
53925;SDS011;39836;52.754;6.866;2024-03-02T02:02:26;6.13;;;4.38;;
53925;SDS011;39836;52.754;6.866;2024-03-02T02:04:51;5.82;;;4.22;;
53925;SDS011;39836;52.754;6.866;2024-03-02T02:07:17;6.82;;;3.97;;
53925;SDS011;39836;52.754;6.866;2024-03-02T02:09:43;6.43;;;4.47;;
53925;SDS011;39836;52.754;6.866;2024-03-02T02:12:09;5.75;;;3.97;;
53925;SDS011;39836;52.754;6.866;2024-03-02T02:14:35;5.15;;;3.90;;
53925;SDS011;39836;52.754;6.866;2024-03-02T02:17:01;6.00;;;4.13;;
53925;SDS011;39836;52.754;6.866;2024-03-02T02:19:27;5.82;;;4.25;;
53925;SDS011;39836;52.754;6.866;2024-03-02T02:21:53;5.55;;;4.20;;
53925;SDS011;39836;52.754;6.866;2024-03-02T02:24:19;7.38;;;4.20;;
53925;SDS011;39836;52.754;6.866;2024-03-02T02:26:45;5.68;;;4.30;;
53925;SDS011;39836;52.754;6.866;2024-03-02T02:29:11;6.20;;;4.03;;
53925;SDS011;39836;52.754;6.866;2024-03-02T02:31:40;5.35;;;4.00;;
53925;SDS011;39836;52.754;6.866;2024-03-02T02:34:06;5.70;;;3.97;;
53925;SDS011;39836;52.754;6.866;2024-03-02T02:36:32;6.03;;;4.57;;
53925;SDS011;39836;52.754;6.866;2024-03-02T02:39:02;5.22;;;3.35;;
53925;SDS011;39836;52.754;6.866;2024-03-02T02:41:29;5.60;;;4.22;;
53925;SDS011;39836;52.754;6.866;2024-03-02T02:43:55;6.22;;;3.78;;
53925;SDS011;39836;52.754;6.866;2024-03-02T02:46:21;5.72;;;4.07;;
53925;SDS011;39836;52.754;6.866;2024-03-02T02:48:47;5.47;;;3.78;;
53925;SDS011;39836;52.754;6.866;2024-03-02T02:51:13;5.18;;;3.97;;
53925;SDS011;39836;52.754;6.866;2024-03-02T02:53:38;9.55;;;4.60;;
53925;SDS011;39836;52.754;6.866;2024-03-02T02:56:07;6.43;;;3.72;;
53925;SDS011;39836;52.754;6.866;2024-03-02T02:58:32;6.10;;;4.10;;
53925;SDS011;39836;52.754;6.866;2024-03-02T03:00:58;7.55;;;3.85;;
53925;SDS011;39836;52.754;6.866;2024-03-02T03:03:24;6.07;;;3.97;;
53925;SDS011;39836;52.754;6.866;2024-03-02T03:05:49;6.38;;;3.90;;
53925;SDS011;39836;52.754;6.866;2024-03-02T03:08:15;4.25;;;3.20;;
53925;SDS011;39836;52.754;6.866;2024-03-02T03:10:41;4.78;;;3.80;;
53925;SDS011;39836;52.754;6.866;2024-03-02T03:13:07;6.10;;;4.60;;
53925;SDS011;39836;52.754;6.866;2024-03-02T03:15:36;5.20;;;3.80;;
53925;SDS011;39836;52.754;6.866;2024-03-02T03:18:05;4.63;;;3.42;;
53925;SDS011;39836;52.754;6.866;2024-03-02T03:20:32;10.32;;;3.35;;
53925;SDS011;39836;52.754;6.866;2024-03-02T03:22:59;6.95;;;3.60;;
53925;SDS011;39836;52.754;6.866;2024-03-02T03:25:25;5.25;;;3.55;;
53925;SDS011;39836;52.754;6.866;2024-03-02T03:27:51;7.63;;;3.58;;
53925;SDS011;39836;52.754;6.866;2024-03-02T03:30:19;5.88;;;3.47;;
53925;SDS011;39836;52.754;6.866;2024-03-02T03:32:45;4.35;;;3.22;;
53925;SDS011;39836;52.754;6.866;2024-03-02T03:35:10;5.90;;;3.83;;
53925;SDS011;39836;52.754;6.866;2024-03-02T03:37:38;7.32;;;4.70;;
53925;SDS011;39836;52.754;6.866;2024-03-02T03:40:03;6.75;;;4.72;;
53925;SDS011;39836;52.754;6.866;2024-03-02T03:42:36;5.25;;;4.05;;
53925;SDS011;39836;52.754;6.866;2024-03-02T03:45:03;7.35;;;4.70;;
53925;SDS011;39836;52.754;6.866;2024-03-02T03:47:30;5.90;;;4.65;;
53925;SDS011;39836;52.754;6.866;2024-03-02T03:49:56;7.13;;;4.80;;
53925;SDS011;39836;52.754;6.866;2024-03-02T03:52:22;7.47;;;4.53;;
53925;SDS011;39836;52.754;6.866;2024-03-02T03:54:48;6.95;;;5.38;;
53925;SDS011;39836;52.754;6.866;2024-03-02T03:57:14;6.90;;;4.85;;
53925;SDS011;39836;52.754;6.866;2024-03-02T03:59:40;6.13;;;4.32;;
53925;SDS011;39836;52.754;6.866;2024-03-02T04:02:05;7.05;;;4.97;;
53925;SDS011;39836;52.754;6.866;2024-03-02T04:04:32;5.72;;;5.05;;
53925;SDS011;39836;52.754;6.866;2024-03-02T04:06:58;6.75;;;4.63;;
53925;SDS011;39836;52.754;6.866;2024-03-02T04:09:24;6.97;;;4.53;;
53925;SDS011;39836;52.754;6.866;2024-03-02T04:11:50;7.07;;;5.38;;
53925;SDS011;39836;52.754;6.866;2024-03-02T04:14:16;7.35;;;5.22;;
53925;SDS011;39836;52.754;6.866;2024-03-02T04:16:42;6.32;;;4.82;;
53925;SDS011;39836;52.754;6.866;2024-03-02T04:19:08;7.35;;;4.88;;
53925;SDS011;39836;52.754;6.866;2024-03-02T04:21:33;5.95;;;5.00;;
53925;SDS011;39836;52.754;6.866;2024-03-02T04:23:59;6.43;;;4.95;;
53925;SDS011;39836;52.754;6.866;2024-03-02T04:26:25;6.40;;;5.20;;
53925;SDS011;39836;52.754;6.866;2024-03-02T04:28:52;6.80;;;5.05;;
53925;SDS011;39836;52.754;6.866;2024-03-02T04:31:18;6.85;;;4.97;;
53925;SDS011;39836;52.754;6.866;2024-03-02T04:33:44;7.05;;;5.32;;
53925;SDS011;39836;52.754;6.866;2024-03-02T04:36:10;7.40;;;5.40;;
53925;SDS011;39836;52.754;6.866;2024-03-02T04:38:36;10.43;;;5.22;;
53925;SDS011;39836;52.754;6.866;2024-03-02T04:41:03;6.13;;;5.07;;
53925;SDS011;39836;52.754;6.866;2024-03-02T04:43:31;7.28;;;4.88;;
53925;SDS011;39836;52.754;6.866;2024-03-02T04:46:00;7.38;;;4.80;;
53925;SDS011;39836;52.754;6.866;2024-03-02T04:48:29;7.22;;;5.10;;
53925;SDS011;39836;52.754;6.866;2024-03-02T04:50:56;6.55;;;4.82;;
53925;SDS011;39836;52.754;6.866;2024-03-02T04:53:22;5.53;;;4.75;;
53925;SDS011;39836;52.754;6.866;2024-03-02T04:55:47;6.82;;;5.15;;
53925;SDS011;39836;52.754;6.866;2024-03-02T04:58:19;8.68;;;5.53;;
53925;SDS011;39836;52.754;6.866;2024-03-02T05:00:45;6.00;;;4.88;;
53925;SDS011;39836;52.754;6.866;2024-03-02T05:03:12;9.77;;;5.45;;
53925;SDS011;39836;52.754;6.866;2024-03-02T05:05:38;9.32;;;5.60;;
53925;SDS011;39836;52.754;6.866;2024-03-02T05:08:04;5.72;;;4.78;;
53925;SDS011;39836;52.754;6.866;2024-03-02T05:10:30;5.95;;;4.93;;
53925;SDS011;39836;52.754;6.866;2024-03-02T05:12:56;6.80;;;4.97;;
53925;SDS011;39836;52.754;6.866;2024-03-02T05:15:22;6.70;;;5.05;;
53925;SDS011;39836;52.754;6.866;2024-03-02T05:17:50;7.90;;;5.25;;
53925;SDS011;39836;52.754;6.866;2024-03-02T05:20:17;7.10;;;4.88;;
53925;SDS011;39836;52.754;6.866;2024-03-02T05:22:45;6.50;;;5.40;;
53925;SDS011;39836;52.754;6.866;2024-03-02T05:25:12;7.53;;;5.40;;
53925;SDS011;39836;52.754;6.866;2024-03-02T05:27:38;7.18;;;5.40;;
53925;SDS011;39836;52.754;6.866;2024-03-02T05:30:04;8.05;;;5.18;;
53925;SDS011;39836;52.754;6.866;2024-03-02T05:32:31;6.45;;;5.10;;
53925;SDS011;39836;52.754;6.866;2024-03-02T05:34:58;9.02;;;5.60;;
53925;SDS011;39836;52.754;6.866;2024-03-02T05:37:24;6.97;;;5.07;;
53925;SDS011;39836;52.754;6.866;2024-03-02T05:40:07;7.57;;;5.50;;
53925;SDS011;39836;52.754;6.866;2024-03-02T05:42:34;7.20;;;5.20;;
53925;SDS011;39836;52.754;6.866;2024-03-02T05:45:00;8.02;;;6.03;;
53925;SDS011;39836;52.754;6.866;2024-03-02T05:47:26;10.20;;;5.32;;
53925;SDS011;39836;52.754;6.866;2024-03-02T05:49:53;8.00;;;5.50;;
53925;SDS011;39836;52.754;6.866;2024-03-02T05:52:19;6.18;;;5.10;;
53925;SDS011;39836;52.754;6.866;2024-03-02T05:55:00;8.55;;;5.68;;
53925;SDS011;39836;52.754;6.866;2024-03-02T05:57:38;8.52;;;5.70;;
53925;SDS011;39836;52.754;6.866;2024-03-02T06:00:14;8.77;;;6.28;;
53925;SDS011;39836;52.754;6.866;2024-03-02T06:02:44;8.75;;;6.15;;
53925;SDS011;39836;52.754;6.866;2024-03-02T06:05:16;8.57;;;6.03;;
53925;SDS011;39836;52.754;6.866;2024-03-02T06:07:44;7.35;;;5.85;;
53925;SDS011;39836;52.754;6.866;2024-03-02T06:10:10;7.50;;;6.22;;
53925;SDS011;39836;52.754;6.866;2024-03-02T06:12:36;9.02;;;6.47;;
53925;SDS011;39836;52.754;6.866;2024-03-02T06:15:02;8.98;;;5.53;;
53925;SDS011;39836;52.754;6.866;2024-03-02T06:17:29;9.15;;;5.63;;
53925;SDS011;39836;52.754;6.866;2024-03-02T06:19:55;8.05;;;5.47;;
53925;SDS011;39836;52.754;6.866;2024-03-02T06:22:21;6.70;;;4.95;;
53925;SDS011;39836;52.754;6.866;2024-03-02T06:24:50;9.70;;;5.20;;
53925;SDS011;39836;52.754;6.866;2024-03-02T06:27:16;9.13;;;5.90;;
53925;SDS011;39836;52.754;6.866;2024-03-02T06:29:42;6.45;;;5.10;;
53925;SDS011;39836;52.754;6.866;2024-03-02T06:32:08;7.72;;;5.88;;
53925;SDS011;39836;52.754;6.866;2024-03-02T06:34:34;8.02;;;5.20;;
53925;SDS011;39836;52.754;6.866;2024-03-02T06:37:00;6.95;;;4.88;;
53925;SDS011;39836;52.754;6.866;2024-03-02T06:39:29;8.35;;;4.97;;
53925;SDS011;39836;52.754;6.866;2024-03-02T06:42:05;11.55;;;5.32;;
53925;SDS011;39836;52.754;6.866;2024-03-02T06:44:36;8.18;;;5.43;;
53925;SDS011;39836;52.754;6.866;2024-03-02T06:47:14;6.75;;;5.03;;
53925;SDS011;39836;52.754;6.866;2024-03-02T06:52:16;8.95;;;5.25;;
53925;SDS011;39836;52.754;6.866;2024-03-02T06:54:47;6.80;;;4.78;;
53925;SDS011;39836;52.754;6.866;2024-03-02T06:59:55;9.48;;;5.03;;
53925;SDS011;39836;52.754;6.866;2024-03-02T07:02:26;8.65;;;5.53;;
53925;SDS011;39836;52.754;6.866;2024-03-02T07:04:58;7.32;;;5.15;;
53925;SDS011;39836;52.754;6.866;2024-03-02T07:07:33;7.32;;;5.00;;
53925;SDS011;39836;52.754;6.866;2024-03-02T07:13:26;8.65;;;5.68;;
53925;SDS011;39836;52.754;6.866;2024-03-02T07:15:52;7.05;;;5.13;;
53925;SDS011;39836;52.754;6.866;2024-03-02T07:19:01;7.25;;;5.18;;
53925;SDS011;39836;52.754;6.866;2024-03-02T07:21:29;7.35;;;5.50;;
53925;SDS011;39836;52.754;6.866;2024-03-02T07:23:56;6.85;;;5.20;;
53925;SDS011;39836;52.754;6.866;2024-03-02T07:26:57;9.63;;;6.22;;
53925;SDS011;39836;52.754;6.866;2024-03-02T07:29:32;8.93;;;5.80;;
53925;SDS011;39836;52.754;6.866;2024-03-02T07:31:58;8.68;;;5.55;;
53925;SDS011;39836;52.754;6.866;2024-03-02T07:34:24;8.88;;;5.75;;
53925;SDS011;39836;52.754;6.866;2024-03-02T07:36:50;7.53;;;5.28;;
53925;SDS011;39836;52.754;6.866;2024-03-02T07:39:16;8.77;;;5.53;;
53925;SDS011;39836;52.754;6.866;2024-03-02T07:41:42;7.47;;;5.55;;
53925;SDS011;39836;52.754;6.866;2024-03-02T07:44:09;8.50;;;5.97;;
53925;SDS011;39836;52.754;6.866;2024-03-02T07:46:35;7.78;;;5.40;;
53925;SDS011;39836;52.754;6.866;2024-03-02T07:49:07;9.18;;;5.63;;
53925;SDS011;39836;52.754;6.866;2024-03-02T07:51:34;7.80;;;5.28;;
53925;SDS011;39836;52.754;6.866;2024-03-02T07:54:06;6.63;;;5.10;;
53925;SDS011;39836;52.754;6.866;2024-03-02T07:56:32;8.10;;;5.60;;
53925;SDS011;39836;52.754;6.866;2024-03-02T07:59:16;9.05;;;5.53;;
53925;SDS011;39836;52.754;6.866;2024-03-02T08:01:45;7.43;;;5.07;;
53925;SDS011;39836;52.754;6.866;2024-03-02T08:04:11;8.40;;;5.63;;
53925;SDS011;39836;52.754;6.866;2024-03-02T08:06:40;8.13;;;5.28;;
53925;SDS011;39836;52.754;6.866;2024-03-02T08:09:08;9.20;;;5.38;;
53925;SDS011;39836;52.754;6.866;2024-03-02T08:11:38;7.47;;;5.50;;
53925;SDS011;39836;52.754;6.866;2024-03-02T08:14:15;8.02;;;5.25;;
53925;SDS011;39836;52.754;6.866;2024-03-02T08:16:41;8.48;;;5.75;;
53925;SDS011;39836;52.754;6.866;2024-03-02T08:19:11;7.93;;;5.63;;
53925;SDS011;39836;52.754;6.866;2024-03-02T08:21:40;7.07;;;5.15;;
53925;SDS011;39836;52.754;6.866;2024-03-02T08:24:10;9.02;;;5.05;;
53925;SDS011;39836;52.754;6.866;2024-03-02T08:26:36;6.68;;;4.72;;
53925;SDS011;39836;52.754;6.866;2024-03-02T08:29:05;7.60;;;4.78;;
53925;SDS011;39836;52.754;6.866;2024-03-02T08:31:31;6.95;;;4.72;;
53925;SDS011;39836;52.754;6.866;2024-03-02T08:34:14;6.97;;;4.65;;
53925;SDS011;39836;52.754;6.866;2024-03-02T08:37:04;6.55;;;4.53;;
53925;SDS011;39836;52.754;6.866;2024-03-02T08:39:38;6.55;;;4.80;;
53925;SDS011;39836;52.754;6.866;2024-03-02T08:42:10;6.20;;;4.55;;
53925;SDS011;39836;52.754;6.866;2024-03-02T08:45:03;6.03;;;4.35;;
53925;SDS011;39836;52.754;6.866;2024-03-02T08:47:48;7.80;;;5.07;;
53925;SDS011;39836;52.754;6.866;2024-03-02T08:50:18;7.45;;;4.40;;
53925;SDS011;39836;52.754;6.866;2024-03-02T08:52:44;6.30;;;4.25;;
53925;SDS011;39836;52.754;6.866;2024-03-02T08:55:10;8.75;;;4.82;;
53925;SDS011;39836;52.754;6.866;2024-03-02T08:57:36;6.22;;;3.83;;
53925;SDS011;39836;52.754;6.866;2024-03-02T09:00:02;6.18;;;3.70;;
53925;SDS011;39836;52.754;6.866;2024-03-02T09:02:30;8.15;;;4.05;;
53925;SDS011;39836;52.754;6.866;2024-03-02T09:04:56;6.80;;;4.03;;
53925;SDS011;39836;52.754;6.866;2024-03-02T09:07:23;6.22;;;3.53;;
53925;SDS011;39836;52.754;6.866;2024-03-02T09:09:57;6.15;;;3.92;;
53925;SDS011;39836;52.754;6.866;2024-03-02T09:12:40;5.93;;;3.97;;
53925;SDS011;39836;52.754;6.866;2024-03-02T09:15:55;5.60;;;4.00;;
53925;SDS011;39836;52.754;6.866;2024-03-02T09:19:11;7.80;;;3.80;;
53925;SDS011;39836;52.754;6.866;2024-03-02T09:21:41;4.87;;;3.60;;
53925;SDS011;39836;52.754;6.866;2024-03-02T09:24:10;4.95;;;3.10;;
53925;SDS011;39836;52.754;6.866;2024-03-02T09:26:46;5.05;;;3.25;;
53925;SDS011;39836;52.754;6.866;2024-03-02T09:29:12;6.20;;;3.60;;
53925;SDS011;39836;52.754;6.866;2024-03-02T09:31:44;5.07;;;3.40;;
53925;SDS011;39836;52.754;6.866;2024-03-02T09:34:12;5.35;;;3.72;;
53925;SDS011;39836;52.754;6.866;2024-03-02T09:36:45;4.68;;;3.15;;
53925;SDS011;39836;52.754;6.866;2024-03-02T09:42:11;5.22;;;3.63;;
53925;SDS011;39836;52.754;6.866;2024-03-02T09:47:44;7.82;;;3.83;;
53925;SDS011;39836;52.754;6.866;2024-03-02T09:50:31;6.85;;;4.18;;
53925;SDS011;39836;52.754;6.866;2024-03-02T09:53:06;7.03;;;4.10;;
53925;SDS011;39836;52.754;6.866;2024-03-02T09:55:33;8.52;;;4.35;;
53925;SDS011;39836;52.754;6.866;2024-03-02T09:58:02;8.15;;;3.47;;
53925;SDS011;39836;52.754;6.866;2024-03-02T10:00:29;5.10;;;3.00;;
53925;SDS011;39836;52.754;6.866;2024-03-02T10:02:58;6.43;;;3.60;;
53925;SDS011;39836;52.754;6.866;2024-03-02T10:05:25;6.18;;;3.42;;
53925;SDS011;39836;52.754;6.866;2024-03-02T10:07:59;5.38;;;3.03;;
53925;SDS011;39836;52.754;6.866;2024-03-02T10:10:35;5.93;;;3.65;;
53925;SDS011;39836;52.754;6.866;2024-03-02T10:13:06;6.88;;;3.63;;
53925;SDS011;39836;52.754;6.866;2024-03-02T10:15:32;7.80;;;3.72;;
53925;SDS011;39836;52.754;6.866;2024-03-02T10:17:58;5.78;;;3.40;;
53925;SDS011;39836;52.754;6.866;2024-03-02T10:20:24;4.63;;;3.33;;
53925;SDS011;39836;52.754;6.866;2024-03-02T10:22:53;5.07;;;3.45;;
53925;SDS011;39836;52.754;6.866;2024-03-02T10:25:31;6.88;;;3.45;;
53925;SDS011;39836;52.754;6.866;2024-03-02T10:27:58;4.78;;;3.00;;
53925;SDS011;39836;52.754;6.866;2024-03-02T10:30:27;4.60;;;2.88;;
53925;SDS011;39836;52.754;6.866;2024-03-02T10:32:57;6.82;;;2.90;;
53925;SDS011;39836;52.754;6.866;2024-03-02T10:35:58;6.20;;;2.45;;
53925;SDS011;39836;52.754;6.866;2024-03-02T10:42:08;5.30;;;2.78;;
53925;SDS011;39836;52.754;6.866;2024-03-02T12:42:27;5.55;;;3.30;;
53925;SDS011;39836;52.754;6.866;2024-03-02T13:08:58;3.08;;;1.50;;
53925;SDS011;39836;52.754;6.866;2024-03-02T13:11:24;3.78;;;1.45;;
53925;SDS011;39836;52.754;6.866;2024-03-02T13:13:50;3.25;;;1.60;;
53925;SDS011;39836;52.754;6.866;2024-03-02T13:16:17;6.15;;;1.80;;
53925;SDS011;39836;52.754;6.866;2024-03-02T13:18:45;2.63;;;1.50;;
53925;SDS011;39836;52.754;6.866;2024-03-02T13:21:10;2.05;;;1.30;;
53925;SDS011;39836;52.754;6.866;2024-03-02T13:23:36;3.42;;;1.50;;
53925;SDS011;39836;52.754;6.866;2024-03-02T13:26:02;4.03;;;1.50;;
53925;SDS011;39836;52.754;6.866;2024-03-02T13:28:28;5.03;;;1.50;;
53925;SDS011;39836;52.754;6.866;2024-03-02T13:30:53;2.50;;;1.50;;
53925;SDS011;39836;52.754;6.866;2024-03-02T13:33:19;1.30;;;1.13;;
53925;SDS011;39836;52.754;6.866;2024-03-02T13:35:50;2.88;;;1.50;;
53925;SDS011;39836;52.754;6.866;2024-03-02T13:38:20;4.82;;;1.40;;
53925;SDS011;39836;52.754;6.866;2024-03-02T13:40:46;3.28;;;1.90;;
53925;SDS011;39836;52.754;6.866;2024-03-02T13:43:16;4.10;;;1.80;;
53925;SDS011;39836;52.754;6.866;2024-03-02T13:45:42;3.60;;;1.98;;
53925;SDS011;39836;52.754;6.866;2024-03-02T13:48:08;2.75;;;1.70;;
53925;SDS011;39836;52.754;6.866;2024-03-02T13:50:34;3.97;;;1.88;;
53925;SDS011;39836;52.754;6.866;2024-03-02T13:53:00;3.90;;;2.20;;
53925;SDS011;39836;52.754;6.866;2024-03-02T13:55:26;4.90;;;2.08;;
53925;SDS011;39836;52.754;6.866;2024-03-02T13:57:51;2.72;;;1.77;;
53925;SDS011;39836;52.754;6.866;2024-03-02T14:00:17;3.00;;;1.92;;
53925;SDS011;39836;52.754;6.866;2024-03-02T14:02:45;3.45;;;2.08;;
53925;SDS011;39836;52.754;6.866;2024-03-02T14:05:11;3.28;;;1.80;;
53925;SDS011;39836;52.754;6.866;2024-03-02T14:07:46;5.80;;;1.83;;
53925;SDS011;39836;52.754;6.866;2024-03-02T14:10:11;3.95;;;2.10;;
53925;SDS011;39836;52.754;6.866;2024-03-02T14:12:37;4.68;;;2.03;;
53925;SDS011;39836;52.754;6.866;2024-03-02T14:15:03;3.38;;;2.03;;
53925;SDS011;39836;52.754;6.866;2024-03-02T14:17:29;5.00;;;2.15;;
53925;SDS011;39836;52.754;6.866;2024-03-02T14:19:57;3.30;;;2.05;;
53925;SDS011;39836;52.754;6.866;2024-03-02T14:22:24;5.07;;;2.55;;
53925;SDS011;39836;52.754;6.866;2024-03-02T14:24:50;4.63;;;2.30;;
53925;SDS011;39836;52.754;6.866;2024-03-02T14:27:16;5.55;;;2.50;;
53925;SDS011;39836;52.754;6.866;2024-03-02T14:29:44;5.80;;;2.50;;
53925;SDS011;39836;52.754;6.866;2024-03-02T14:32:10;6.40;;;2.72;;
53925;SDS011;39836;52.754;6.866;2024-03-02T14:34:36;5.10;;;2.38;;
53925;SDS011;39836;52.754;6.866;2024-03-02T14:37:01;5.25;;;2.40;;
53925;SDS011;39836;52.754;6.866;2024-03-02T14:39:28;3.35;;;2.33;;
53925;SDS011;39836;52.754;6.866;2024-03-02T14:41:54;3.58;;;2.30;;
53925;SDS011;39836;52.754;6.866;2024-03-02T14:44:20;4.10;;;2.47;;
53925;SDS011;39836;52.754;6.866;2024-03-02T14:46:46;4.70;;;2.50;;
53925;SDS011;39836;52.754;6.866;2024-03-02T14:49:13;4.85;;;2.38;;
53925;SDS011;39836;52.754;6.866;2024-03-02T14:51:39;2.92;;;2.20;;
53925;SDS011;39836;52.754;6.866;2024-03-02T14:54:05;4.82;;;2.40;;
53925;SDS011;39836;52.754;6.866;2024-03-02T14:56:31;5.32;;;2.30;;
53925;SDS011;39836;52.754;6.866;2024-03-02T14:58:57;5.05;;;2.20;;
53925;SDS011;39836;52.754;6.866;2024-03-02T15:01:23;3.58;;;2.20;;
53925;SDS011;39836;52.754;6.866;2024-03-02T15:03:49;5.20;;;2.60;;
53925;SDS011;39836;52.754;6.866;2024-03-02T15:06:15;4.32;;;2.20;;
53925;SDS011;39836;52.754;6.866;2024-03-02T15:08:41;3.92;;;2.65;;
53925;SDS011;39836;52.754;6.866;2024-03-02T15:11:07;5.82;;;2.45;;
53925;SDS011;39836;52.754;6.866;2024-03-02T15:13:33;4.03;;;2.10;;
53925;SDS011;39836;52.754;6.866;2024-03-02T15:15:59;3.70;;;2.17;;
53925;SDS011;39836;52.754;6.866;2024-03-02T15:18:25;5.43;;;2.28;;
53925;SDS011;39836;52.754;6.866;2024-03-02T15:20:52;3.92;;;2.33;;
53925;SDS011;39836;52.754;6.866;2024-03-02T15:23:18;4.63;;;2.40;;
53925;SDS011;39836;52.754;6.866;2024-03-02T15:25:44;4.53;;;2.30;;
53925;SDS011;39836;52.754;6.866;2024-03-02T15:28:09;3.17;;;2.28;;
53925;SDS011;39836;52.754;6.866;2024-03-02T15:30:35;4.35;;;2.20;;
53925;SDS011;39836;52.754;6.866;2024-03-02T15:33:01;4.93;;;2.75;;
53925;SDS011;39836;52.754;6.866;2024-03-02T15:35:27;4.05;;;2.25;;
53925;SDS011;39836;52.754;6.866;2024-03-02T15:37:53;3.63;;;2.10;;
53925;SDS011;39836;52.754;6.866;2024-03-02T15:40:18;4.63;;;2.17;;
53925;SDS011;39836;52.754;6.866;2024-03-02T15:42:44;3.38;;;2.10;;
53925;SDS011;39836;52.754;6.866;2024-03-02T15:45:10;2.95;;;2.10;;
53925;SDS011;39836;52.754;6.866;2024-03-02T15:47:36;4.20;;;2.50;;
53925;SDS011;39836;52.754;6.866;2024-03-02T15:50:02;3.95;;;2.40;;
53925;SDS011;39836;52.754;6.866;2024-03-02T15:52:29;3.95;;;2.15;;
53925;SDS011;39836;52.754;6.866;2024-03-02T15:54:55;3.83;;;2.15;;
53925;SDS011;39836;52.754;6.866;2024-03-02T15:57:20;4.00;;;2.30;;
53925;SDS011;39836;52.754;6.866;2024-03-02T15:59:48;4.20;;;2.20;;
53925;SDS011;39836;52.754;6.866;2024-03-02T16:02:14;4.30;;;2.25;;
53925;SDS011;39836;52.754;6.866;2024-03-02T16:04:40;3.47;;;1.92;;
53925;SDS011;39836;52.754;6.866;2024-03-02T16:07:06;4.65;;;2.55;;
53925;SDS011;39836;52.754;6.866;2024-03-02T16:09:32;5.07;;;2.33;;
53925;SDS011;39836;52.754;6.866;2024-03-02T16:11:58;4.45;;;2.30;;
53925;SDS011;39836;52.754;6.866;2024-03-02T16:14:24;3.38;;;2.00;;
53925;SDS011;39836;52.754;6.866;2024-03-02T16:16:50;3.38;;;2.00;;
53925;SDS011;39836;52.754;6.866;2024-03-02T16:19:16;3.83;;;1.80;;
53925;SDS011;39836;52.754;6.866;2024-03-02T16:21:41;5.55;;;2.10;;
53925;SDS011;39836;52.754;6.866;2024-03-02T16:24:08;3.53;;;2.05;;
53925;SDS011;39836;52.754;6.866;2024-03-02T16:26:33;3.28;;;1.83;;
53925;SDS011;39836;52.754;6.866;2024-03-02T16:28:59;3.95;;;1.75;;
53925;SDS011;39836;52.754;6.866;2024-03-02T16:31:25;3.30;;;1.65;;
53925;SDS011;39836;52.754;6.866;2024-03-02T16:33:51;2.88;;;1.80;;
53925;SDS011;39836;52.754;6.866;2024-03-02T16:36:16;2.75;;;1.90;;
53925;SDS011;39836;52.754;6.866;2024-03-02T16:38:43;3.10;;;1.90;;
53925;SDS011;39836;52.754;6.866;2024-03-02T16:41:08;2.72;;;2.00;;
53925;SDS011;39836;52.754;6.866;2024-03-02T16:43:34;2.63;;;1.85;;
53925;SDS011;39836;52.754;6.866;2024-03-02T16:46:00;3.95;;;1.90;;
53925;SDS011;39836;52.754;6.866;2024-03-02T16:48:26;3.55;;;2.00;;
53925;SDS011;39836;52.754;6.866;2024-03-02T16:50:52;3.58;;;2.13;;
53925;SDS011;39836;52.754;6.866;2024-03-02T16:53:17;3.08;;;2.05;;
53925;SDS011;39836;52.754;6.866;2024-03-02T16:55:43;3.95;;;2.20;;
53925;SDS011;39836;52.754;6.866;2024-03-02T16:58:09;3.95;;;1.95;;
53925;SDS011;39836;52.754;6.866;2024-03-02T17:00:34;3.38;;;1.98;;
53925;SDS011;39836;52.754;6.866;2024-03-02T17:03:01;4.82;;;2.08;;
53925;SDS011;39836;52.754;6.866;2024-03-02T17:05:27;3.28;;;2.00;;
53925;SDS011;39836;52.754;6.866;2024-03-02T17:07:52;2.65;;;2.03;;
53925;SDS011;39836;52.754;6.866;2024-03-02T17:10:18;2.88;;;1.85;;
53925;SDS011;39836;52.754;6.866;2024-03-02T17:12:44;3.40;;;2.10;;
53925;SDS011;39836;52.754;6.866;2024-03-02T17:15:09;3.28;;;2.10;;
53925;SDS011;39836;52.754;6.866;2024-03-02T17:17:35;3.30;;;1.80;;
53925;SDS011;39836;52.754;6.866;2024-03-02T17:20:01;3.45;;;2.03;;
53925;SDS011;39836;52.754;6.866;2024-03-02T17:22:29;2.97;;;1.92;;
53925;SDS011;39836;52.754;6.866;2024-03-02T17:24:56;3.67;;;2.33;;
53925;SDS011;39836;52.754;6.866;2024-03-02T17:27:22;2.83;;;2.13;;
53925;SDS011;39836;52.754;6.866;2024-03-02T17:29:48;3.20;;;1.92;;
53925;SDS011;39836;52.754;6.866;2024-03-02T17:32:14;3.97;;;2.17;;
53925;SDS011;39836;52.754;6.866;2024-03-02T17:34:39;3.20;;;2.03;;
53925;SDS011;39836;52.754;6.866;2024-03-02T17:37:05;3.20;;;2.00;;